createdAt,value
2023-05-13T00:00:30.644Z,88.50
2023-05-13T00:02:57.492Z,88.50
2023-05-13T00:05:24.170Z,88.50
2023-05-13T00:07:51.172Z,88.50
2023-05-13T00:10:36.436Z,88.60
2023-05-13T00:13:03.937Z,88.50
2023-05-13T00:15:31.604Z,88.30
2023-05-13T00:17:58.300Z,88.40
2023-05-13T00:20:25.059Z,88.30
2023-05-13T00:22:51.807Z,88.20
2023-05-13T00:25:18.532Z,88.10
2023-05-13T00:27:45.157Z,88.10
2023-05-13T00:30:11.991Z,88.10
2023-05-13T00:32:38.701Z,88.10
2023-05-13T00:35:05.954Z,87.90
2023-05-13T00:37:32.702Z,87.90
2023-05-13T00:39:59.337Z,87.90
2023-05-13T00:42:25.975Z,88.10
2023-05-13T00:44:52.952Z,88.30
2023-05-13T00:47:19.645Z,88.20
2023-05-13T00:49:46.396Z,88.30
2023-05-13T00:52:13.172Z,88.30
2023-05-13T00:54:39.834Z,88.20
2023-05-13T00:57:06.533Z,88.20
2023-05-13T00:59:33.308Z,88.30
2023-05-13T01:01:59.898Z,88.20
2023-05-13T01:04:54.592Z,88.20
2023-05-13T01:07:46.545Z,88.20
2023-05-13T01:10:31.536Z,88.20
2023-05-13T01:13:01.687Z,88.20
2023-05-13T01:15:29.518Z,88.20
2023-05-13T01:18:07.035Z,88.20
2023-05-13T01:20:35.384Z,88.20
2023-05-13T01:23:04.262Z,88.20
2023-05-13T01:25:31.427Z,88.10
2023-05-13T01:27:59.091Z,88.10
2023-05-13T01:30:26.946Z,88.10
2023-05-13T01:32:54.439Z,87.90
2023-05-13T01:35:23.374Z,87.80
2023-05-13T01:37:51.054Z,87.70
2023-05-13T01:40:31.640Z,87.60
2023-05-13T01:42:59.822Z,87.50
2023-05-13T01:45:30.172Z,87.40
2023-05-13T01:48:00.391Z,87.40
2023-05-13T01:50:27.980Z,87.30
2023-05-13T01:52:55.057Z,87.50
2023-05-13T01:55:22.101Z,87.60
2023-05-13T01:57:49.403Z,87.50
2023-05-13T02:00:16.714Z,87.70
2023-05-13T02:02:44.637Z,87.70
2023-05-13T02:05:11.696Z,87.60
2023-05-13T02:07:38.942Z,87.60
2023-05-13T02:10:06.520Z,87.60
2023-05-13T02:12:33.417Z,87.60
2023-05-13T02:15:03.906Z,87.40
2023-05-13T02:17:31.041Z,87.60
2023-05-13T02:19:58.341Z,87.60
2023-05-13T02:22:25.633Z,87.50
2023-05-13T02:24:52.757Z,87.50
2023-05-13T02:27:23.824Z,87.50
2023-05-13T02:29:50.886Z,87.40
2023-05-13T02:32:18.054Z,87.50
2023-05-13T02:34:45.372Z,87.40
2023-05-13T02:37:12.573Z,87.40
2023-05-13T02:39:39.402Z,87.50
2023-05-13T02:42:07.113Z,87.40
2023-05-13T02:44:34.134Z,87.40
2023-05-13T02:47:01.098Z,87.30
2023-05-13T02:49:28.150Z,87.20
2023-05-13T02:51:58.267Z,87.20
2023-05-13T02:54:25.134Z,87.20
2023-05-13T02:56:52.143Z,87.20
2023-05-13T02:59:22.187Z,87.20
2023-05-13T03:01:49.511Z,87.20
2023-05-13T03:04:16.989Z,87.20
2023-05-13T03:06:44.166Z,87.20
2023-05-13T03:09:11.324Z,87.10
2023-05-13T03:11:38.628Z,87.10
2023-05-13T03:14:05.800Z,87.10
2023-05-13T03:16:32.867Z,87.00
2023-05-13T03:19:00.357Z,87.10
2023-05-13T03:21:29.992Z,87.00
2023-05-13T03:23:56.884Z,87.10
2023-05-13T03:26:23.788Z,87.00
2023-05-13T03:28:51.040Z,87.00
2023-05-13T03:31:18.114Z,86.90
2023-05-13T03:33:45.278Z,87.00
2023-05-13T03:36:12.190Z,87.00
2023-05-13T03:38:40.977Z,87.00
2023-05-13T03:41:08.044Z,86.90
2023-05-13T03:43:35.129Z,86.90
2023-05-13T03:46:02.438Z,86.80
2023-05-13T03:48:29.619Z,86.80
2023-05-13T03:50:58.645Z,86.90
2023-05-13T03:53:25.743Z,86.70
2023-05-13T03:55:52.741Z,86.80
2023-05-13T03:58:21.906Z,86.70
2023-05-13T04:00:49.566Z,86.40
2023-05-13T04:03:17.753Z,86.90
2023-05-13T04:05:48.320Z,86.90
2023-05-13T04:08:15.981Z,86.80
2023-05-13T04:10:43.416Z,86.70
2023-05-13T04:13:11.399Z,86.90
2023-05-13T04:15:38.400Z,86.70
2023-05-13T04:18:05.808Z,86.70
2023-05-13T04:20:32.854Z,86.80
2023-05-13T04:23:00.135Z,86.70
2023-05-13T04:25:27.048Z,86.70
2023-05-13T04:27:54.216Z,86.80
2023-05-13T04:30:21.483Z,86.80
2023-05-13T04:32:48.812Z,86.90
2023-05-13T04:35:16.114Z,86.70
2023-05-13T04:37:43.258Z,86.70
2023-05-13T04:40:10.935Z,86.60
2023-05-13T04:42:37.949Z,86.70
2023-05-13T04:45:05.715Z,86.60
2023-05-13T04:47:35.519Z,86.60
2023-05-13T04:50:03.622Z,86.60
2023-05-13T04:52:31.274Z,86.70
2023-05-13T04:54:58.195Z,86.70
2023-05-13T04:57:25.209Z,86.40
2023-05-13T04:59:52.189Z,86.30
2023-05-13T05:02:21.391Z,86.30
2023-05-13T05:04:49.689Z,86.20
2023-05-13T05:07:18.680Z,86.20
2023-05-13T05:09:45.879Z,86.30
2023-05-13T05:12:13.000Z,86.20
2023-05-13T05:14:40.432Z,86.20
2023-05-13T05:17:08.090Z,86.20
2023-05-13T05:19:35.151Z,86.10
2023-05-13T05:22:02.287Z,86.20
2023-05-13T05:24:29.642Z,86.20
2023-05-13T05:26:57.087Z,86.20
2023-05-13T05:29:27.694Z,86.20
2023-05-13T05:31:54.898Z,86.20
2023-05-13T05:34:22.448Z,86.00
2023-05-13T05:36:49.606Z,86.10
2023-05-13T05:39:16.698Z,86.10
2023-05-13T05:41:43.745Z,86.10
2023-05-13T05:44:13.862Z,86.10
2023-05-13T05:46:40.944Z,86.10
2023-05-13T05:49:08.640Z,86.10
2023-05-13T05:51:36.023Z,86.10
2023-05-13T05:54:03.150Z,86.10
2023-05-13T05:56:30.338Z,86.20
2023-05-13T05:58:57.606Z,86.00
2023-05-13T06:01:25.236Z,86.10
2023-05-13T06:03:54.699Z,86.10
2023-05-13T06:06:22.621Z,86.10
2023-05-13T06:08:49.579Z,86.00
2023-05-13T06:11:16.778Z,86.10
2023-05-13T06:13:44.122Z,86.10
2023-05-13T06:16:14.256Z,86.20
2023-05-13T06:18:41.657Z,86.20
2023-05-13T06:21:08.671Z,86.40
2023-05-13T06:23:35.668Z,86.40
2023-05-13T06:26:03.134Z,86.40
2023-05-13T06:28:30.365Z,86.50
2023-05-13T06:30:57.967Z,86.40
2023-05-13T06:33:25.131Z,86.40
2023-05-13T06:35:53.451Z,86.40
2023-05-13T06:38:20.712Z,86.50
2023-05-13T06:40:47.761Z,86.40
2023-05-13T06:43:16.475Z,86.40
2023-05-13T06:45:43.735Z,86.40
2023-05-13T06:48:10.917Z,86.40
2023-05-13T06:50:38.543Z,86.40
2023-05-13T06:53:05.529Z,86.40
2023-05-13T06:55:32.559Z,86.40
2023-05-13T06:57:59.679Z,86.50
2023-05-13T07:00:29.471Z,86.90
2023-05-13T07:02:56.633Z,86.90
2023-05-13T07:05:23.634Z,86.90
2023-05-13T07:07:53.857Z,87.00
2023-05-13T07:10:21.014Z,87.00
2023-05-13T07:12:48.537Z,87.00
2023-05-13T07:15:16.745Z,87.00
2023-05-13T07:17:43.828Z,87.00
2023-05-13T07:20:11.551Z,87.00
2023-05-13T07:22:38.613Z,87.00
2023-05-13T07:25:06.330Z,87.00
2023-05-13T07:27:33.409Z,87.00
2023-05-13T07:30:00.656Z,87.00
2023-05-13T07:32:29.770Z,87.10
2023-05-13T07:34:59.901Z,87.00
2023-05-13T07:37:26.999Z,87.00
2023-05-13T07:39:54.176Z,87.10
2023-05-13T07:42:25.351Z,87.10
2023-05-13T07:44:53.029Z,87.10
2023-05-13T07:47:20.266Z,87.10
2023-05-13T07:49:47.430Z,87.10
2023-05-13T07:52:14.456Z,87.10
2023-05-13T07:54:41.744Z,87.10
2023-05-13T07:57:08.696Z,87.20
2023-05-13T07:59:35.885Z,87.30
2023-05-13T08:02:03.228Z,87.30
2023-05-13T08:04:30.365Z,87.40
2023-05-13T08:06:57.326Z,87.20
2023-05-13T08:09:25.150Z,87.20
2023-05-13T08:11:52.121Z,87.30
2023-05-13T08:14:19.151Z,87.30
2023-05-13T08:16:46.368Z,87.30
2023-05-13T08:19:16.647Z,87.40
2023-05-13T08:21:43.953Z,87.40
2023-05-13T08:24:11.126Z,87.20
2023-05-13T08:26:38.339Z,87.20
2023-05-13T08:29:05.544Z,87.40
2023-05-13T08:31:35.346Z,87.20
2023-05-13T08:34:02.479Z,87.20
2023-05-13T08:36:35.477Z,87.40
2023-05-13T08:39:02.362Z,87.10
2023-05-13T08:41:31.608Z,87.10
2023-05-13T08:43:59.590Z,87.10
2023-05-13T08:46:29.621Z,87.20
2023-05-13T08:48:57.961Z,87.20
2023-05-13T08:51:25.633Z,87.20
2023-05-13T08:53:55.228Z,87.20
2023-05-13T08:56:25.663Z,87.30
2023-05-13T08:58:52.945Z,87.40
2023-05-13T09:01:20.510Z,87.50
2023-05-13T09:04:02.377Z,87.50
2023-05-13T09:06:29.757Z,87.50
2023-05-13T09:08:57.257Z,87.40
2023-05-13T09:11:34.845Z,87.50
2023-05-13T09:14:08.506Z,87.50
2023-05-13T09:16:36.483Z,87.50
2023-05-13T09:19:11.606Z,87.60
2023-05-13T09:21:39.252Z,87.60
2023-05-13T09:24:25.736Z,87.50
2023-05-13T09:27:05.589Z,87.50
2023-05-13T09:29:33.574Z,87.60
2023-05-13T09:32:14.430Z,87.60
2023-05-13T09:34:49.129Z,88.50
2023-05-13T09:37:19.195Z,89.40
2023-05-13T09:39:46.583Z,89.40
2023-05-13T09:42:18.409Z,89.10
2023-05-13T09:44:46.748Z,89.10
2023-05-13T09:47:20.687Z,89.40
2023-05-13T09:49:59.271Z,89.30
2023-05-13T09:52:26.376Z,89.00
2023-05-13T09:54:56.092Z,88.90
2023-05-13T09:57:22.976Z,88.80
2023-05-13T09:59:50.756Z,88.70
2023-05-13T10:02:25.487Z,89.10
2023-05-13T10:04:57.166Z,89.20
2023-05-13T10:07:27.926Z,89.10
2023-05-13T10:10:03.962Z,89.20
2023-05-13T10:12:33.861Z,88.60
2023-05-13T10:15:06.720Z,88.10
2023-05-13T10:17:34.675Z,89.00
2023-05-13T10:20:03.889Z,89.10
2023-05-13T10:22:35.172Z,88.70
2023-05-13T10:25:05.389Z,88.50
2023-05-13T10:27:34.091Z,88.20
2023-05-13T10:30:05.964Z,87.90
2023-05-13T10:32:57.411Z,88.30
2023-05-13T10:36:06.715Z,88.80
2023-05-13T10:38:43.533Z,88.40
2023-05-13T10:41:33.308Z,88.20
2023-05-13T10:44:00.454Z,87.90
2023-05-13T10:46:27.574Z,87.70
2023-05-13T10:48:59.527Z,87.60
2023-05-13T10:51:27.943Z,87.30
2023-05-13T10:53:58.641Z,87.10
2023-05-13T10:56:28.007Z,87.20
2023-05-13T10:58:58.124Z,87.20
2023-05-13T11:01:36.301Z,86.90
2023-05-13T11:04:05.023Z,86.90
2023-05-13T11:06:36.948Z,86.90
2023-05-13T11:09:07.800Z,86.60
2023-05-13T11:11:36.611Z,86.50
2023-05-13T11:14:17.264Z,86.20
2023-05-13T11:17:02.435Z,85.80
2023-05-13T11:19:31.715Z,85.20
2023-05-13T11:22:14.916Z,84.60
2023-05-13T11:24:45.228Z,84.10
2023-05-13T11:27:20.065Z,84.00
2023-05-13T11:29:59.908Z,83.70
2023-05-13T11:33:01.610Z,83.20
2023-05-13T11:35:30.484Z,83.00
2023-05-13T11:38:00.291Z,83.90
2023-05-13T11:40:28.592Z,82.70
2023-05-13T11:42:55.656Z,82.60
2023-05-13T11:45:24.333Z,82.60
2023-05-13T11:47:52.585Z,83.00
2023-05-13T11:50:19.813Z,83.30
2023-05-13T11:52:52.514Z,82.90
2023-05-13T11:55:27.067Z,83.20
2023-05-13T11:57:54.543Z,83.50
2023-05-13T12:00:28.967Z,83.80
2023-05-13T12:02:56.303Z,84.20
2023-05-13T12:05:24.373Z,84.30
2023-05-13T12:07:52.483Z,84.40
2023-05-13T12:10:19.322Z,84.50
2023-05-13T12:12:46.596Z,84.50
2023-05-13T12:15:18.352Z,84.50
2023-05-13T12:17:45.497Z,84.40
2023-05-13T12:20:17.508Z,84.30
2023-05-13T12:22:44.210Z,84.10
2023-05-13T12:25:43.817Z,83.90
2023-05-13T12:28:28.925Z,83.90
2023-05-13T12:30:58.576Z,83.70
2023-05-13T12:33:30.884Z,83.30
2023-05-13T12:36:16.666Z,83.20
2023-05-13T12:39:00.659Z,82.90
2023-05-13T12:41:32.223Z,82.40
2023-05-13T12:44:04.564Z,82.60
2023-05-13T12:46:31.491Z,82.70
2023-05-13T12:49:00.672Z,82.70
2023-05-13T12:51:28.327Z,82.90
2023-05-13T12:53:55.735Z,83.70
2023-05-13T12:56:23.380Z,84.40
2023-05-13T12:58:51.277Z,84.80
2023-05-13T13:01:18.281Z,85.30
2023-05-13T13:03:45.895Z,85.80
2023-05-13T13:06:13.919Z,85.60
2023-05-13T13:08:40.864Z,85.40
2023-05-13T13:11:07.760Z,85.10
2023-05-13T13:13:35.609Z,84.40
2023-05-13T13:16:04.692Z,84.10
2023-05-13T13:18:31.818Z,85.10
2023-05-13T13:20:59.093Z,85.40
2023-05-13T13:23:26.459Z,86.00
2023-05-13T13:25:53.760Z,85.90
2023-05-13T13:28:20.507Z,85.60
2023-05-13T13:30:47.551Z,85.90
2023-05-13T13:33:15.803Z,86.10
2023-05-13T13:35:43.892Z,86.20
2023-05-13T13:38:11.049Z,86.20
2023-05-13T13:40:38.020Z,85.90
2023-05-13T13:43:06.395Z,85.40
2023-05-13T13:45:33.795Z,85.30
2023-05-13T13:48:00.811Z,85.30
2023-05-13T13:50:27.885Z,85.30
2023-05-13T13:52:54.877Z,85.30
2023-05-13T13:55:22.996Z,85.40
2023-05-13T13:57:50.789Z,85.80
2023-05-13T14:00:17.962Z,86.40
2023-05-13T14:02:44.833Z,86.60
2023-05-13T14:05:12.910Z,86.80
2023-05-13T14:07:39.960Z,87.10
2023-05-13T14:10:07.693Z,87.10
2023-05-13T14:12:36.343Z,87.30
2023-05-13T14:15:03.631Z,87.20
2023-05-13T14:17:30.587Z,87.40
2023-05-13T14:19:57.456Z,87.50
2023-05-13T14:22:24.811Z,87.50
2023-05-13T14:24:52.493Z,87.60
2023-05-13T14:27:19.773Z,87.60
2023-05-13T14:29:48.082Z,87.60
2023-05-13T14:32:14.954Z,87.60
2023-05-13T14:34:41.834Z,87.60
2023-05-13T14:37:09.019Z,87.70
2023-05-13T14:39:35.925Z,87.80
2023-05-13T14:42:03.647Z,87.70
2023-05-13T14:44:30.631Z,87.60
2023-05-13T14:46:57.520Z,87.60
2023-05-13T14:49:24.399Z,87.60
2023-05-13T14:51:51.201Z,87.70
2023-05-13T14:54:18.086Z,87.60
2023-05-13T14:56:45.277Z,87.80
2023-05-13T14:59:12.162Z,87.70
2023-05-13T15:01:39.143Z,87.80
2023-05-13T15:04:06.111Z,87.80
2023-05-13T15:06:33.600Z,87.80
2023-05-13T15:09:00.444Z,87.80
2023-05-13T15:11:28.312Z,87.90
2023-05-13T15:13:55.459Z,87.90
2023-05-13T15:16:22.746Z,87.80
2023-05-13T15:18:50.174Z,87.80
2023-05-13T15:21:17.852Z,87.70
2023-05-13T15:23:44.657Z,87.80
2023-05-13T15:26:11.608Z,87.80
2023-05-13T15:28:38.387Z,87.80
2023-05-13T15:31:05.863Z,87.90
2023-05-13T15:33:32.652Z,87.80
2023-05-13T15:36:00.178Z,88.00
2023-05-13T15:38:27.483Z,87.90
2023-05-13T15:40:54.309Z,88.00
2023-05-13T15:43:21.108Z,88.10
2023-05-13T15:45:48.045Z,87.90
2023-05-13T15:48:14.949Z,88.10
2023-05-13T15:50:41.868Z,88.10
2023-05-13T15:53:08.590Z,88.10
2023-05-13T15:55:37.396Z,88.20
2023-05-13T15:58:04.207Z,88.30
2023-05-13T16:00:31.347Z,88.40
2023-05-13T16:02:58.309Z,88.50
2023-05-13T16:05:25.217Z,88.80
2023-05-13T16:07:52.239Z,88.80
2023-05-13T16:10:19.563Z,88.90
2023-05-13T16:12:46.313Z,89.10
2023-05-13T16:15:13.168Z,89.10
2023-05-13T16:17:40.282Z,89.00
2023-05-13T16:20:08.932Z,89.10
2023-05-13T16:22:40.161Z,89.20
2023-05-13T16:25:09.122Z,89.20
2023-05-13T16:27:36.927Z,89.00
2023-05-13T16:30:05.465Z,88.80
2023-05-13T16:32:36.897Z,88.60
2023-05-13T16:35:03.916Z,88.20
2023-05-13T16:37:31.316Z,87.50
2023-05-13T16:39:58.186Z,87.10
2023-05-13T16:42:25.954Z,86.90
2023-05-13T16:44:52.683Z,86.50
2023-05-13T16:47:19.563Z,86.30
2023-05-13T16:49:48.381Z,86.30
2023-05-13T16:52:15.512Z,86.10
2023-05-13T16:54:42.292Z,85.70
2023-05-13T16:57:09.133Z,85.60
2023-05-13T16:59:36.284Z,85.30
2023-05-13T17:02:03.094Z,85.20
2023-05-13T17:04:29.963Z,85.20
2023-05-13T17:06:59.791Z,85.00
2023-05-13T17:09:26.682Z,85.00
2023-05-13T17:11:54.725Z,85.00
2023-05-13T17:14:22.275Z,85.20
2023-05-13T17:16:49.394Z,85.50
2023-05-13T17:19:16.449Z,85.80
2023-05-13T17:21:43.416Z,85.90
2023-05-13T17:24:10.174Z,86.10
2023-05-13T17:26:38.760Z,86.10
2023-05-13T17:29:06.129Z,86.40
2023-05-13T17:31:33.625Z,87.00
2023-05-13T17:34:00.557Z,87.30
2023-05-13T17:36:27.624Z,87.20
2023-05-13T17:38:54.600Z,87.20
2023-05-13T17:41:21.715Z,87.00
2023-05-13T17:43:48.565Z,87.00
2023-05-13T17:46:15.647Z,86.90
2023-05-13T17:48:42.779Z,86.80
2023-05-13T17:51:10.384Z,86.60
2023-05-13T17:53:37.192Z,86.50
2023-05-13T17:56:04.199Z,86.60
2023-05-13T17:58:30.982Z,86.60
2023-05-13T18:00:57.809Z,86.60
2023-05-13T18:03:24.528Z,86.60
2023-05-13T18:05:51.666Z,86.20
2023-05-13T18:08:18.578Z,85.80
2023-05-13T18:10:45.672Z,85.60
2023-05-13T18:13:12.473Z,85.20
2023-05-13T18:15:39.331Z,85.10
2023-05-13T18:18:06.311Z,85.20
2023-05-13T18:20:33.727Z,85.30
2023-05-13T18:23:00.952Z,85.50
2023-05-13T18:25:27.786Z,85.50
2023-05-13T18:27:54.626Z,85.60
2023-05-13T18:30:21.679Z,85.70
2023-05-13T18:32:48.959Z,85.80
2023-05-13T18:35:16.265Z,85.80
2023-05-13T18:37:43.112Z,85.80
2023-05-13T18:40:10.257Z,85.80
2023-05-13T18:42:37.243Z,85.90
2023-05-13T18:45:04.441Z,85.90
2023-05-13T18:47:31.218Z,85.90
2023-05-13T18:49:58.106Z,85.90
2023-05-13T18:52:26.142Z,85.90
2023-05-13T18:54:52.902Z,86.10
2023-05-13T18:57:20.674Z,86.10
2023-05-13T18:59:47.773Z,86.00
2023-05-13T19:02:14.720Z,86.10
2023-05-13T19:04:41.584Z,86.30
2023-05-13T19:07:08.506Z,86.30
2023-05-13T19:09:35.970Z,86.20
2023-05-13T19:12:02.809Z,86.10
2023-05-13T19:14:29.484Z,85.90
2023-05-13T19:16:56.536Z,85.80
2023-05-13T19:19:24.737Z,85.90
2023-05-13T19:21:53.859Z,85.80
2023-05-13T19:24:20.811Z,85.80
2023-05-13T19:26:47.598Z,85.80
2023-05-13T19:29:14.413Z,85.80
2023-05-13T19:31:41.177Z,85.80
2023-05-13T19:34:08.394Z,85.80
2023-05-13T19:36:35.583Z,85.80
2023-05-13T19:39:02.494Z,85.70
2023-05-13T19:41:29.247Z,85.70
2023-05-13T19:43:56.712Z,85.50
2023-05-13T19:46:23.697Z,85.60
2023-05-13T19:48:50.620Z,85.50
2023-05-13T19:51:18.136Z,85.50
2023-05-13T19:53:44.916Z,85.50
2023-05-13T19:56:12.106Z,85.50
2023-05-13T19:58:38.912Z,85.50
2023-05-13T20:01:06.110Z,85.40
2023-05-13T20:03:32.959Z,85.30
2023-05-13T20:05:59.967Z,85.30
2023-05-13T20:08:27.350Z,85.20
2023-05-13T20:10:54.204Z,85.10
2023-05-13T20:13:20.997Z,85.10
2023-05-13T20:15:47.801Z,85.10
2023-05-13T20:18:14.872Z,85.00
2023-05-13T20:20:41.756Z,85.00
2023-05-13T20:23:08.734Z,85.10
2023-05-13T20:25:35.775Z,85.00
2023-05-13T20:28:02.646Z,85.00
2023-05-13T20:30:29.313Z,85.00
2023-05-13T20:32:56.085Z,85.00
2023-05-13T20:35:22.943Z,84.60
2023-05-13T20:37:49.830Z,84.70
2023-05-13T20:40:16.678Z,84.80
2023-05-13T20:42:43.506Z,84.90
2023-05-13T20:45:10.623Z,85.10
2023-05-13T20:47:37.361Z,85.00
2023-05-13T20:50:05.652Z,85.10
2023-05-13T20:52:32.561Z,85.20
2023-05-13T20:54:59.593Z,85.20
2023-05-13T20:57:26.336Z,85.10
2023-05-13T20:59:53.181Z,85.20
2023-05-13T21:02:20.334Z,85.30
2023-05-13T21:04:47.133Z,85.50
2023-05-13T21:07:14.163Z,85.70
2023-05-13T21:09:40.975Z,86.30
2023-05-13T21:12:07.888Z,86.40
2023-05-13T21:14:34.604Z,86.20
2023-05-13T21:17:03.384Z,86.20
2023-05-13T21:19:30.872Z,86.10
2023-05-13T21:21:58.602Z,86.00
2023-05-13T21:24:25.534Z,85.90
2023-05-13T21:26:52.503Z,86.10
2023-05-13T21:29:19.501Z,86.00
2023-05-13T21:31:47.506Z,85.90
2023-05-13T21:34:14.376Z,86.10
2023-05-13T21:36:41.412Z,85.90
2023-05-13T21:39:10.249Z,85.80
2023-05-13T21:41:37.816Z,85.90
2023-05-13T21:44:04.736Z,86.10
2023-05-13T21:46:31.718Z,86.10
2023-05-13T21:49:01.863Z,86.20
2023-05-13T21:51:29.136Z,86.20
2023-05-13T21:53:56.049Z,86.10
2023-05-13T21:56:22.771Z,85.90
2023-05-13T21:58:49.994Z,85.90
2023-05-13T22:01:17.055Z,85.90
2023-05-13T22:03:43.907Z,85.80
2023-05-13T22:06:10.772Z,85.70
2023-05-13T22:08:37.543Z,85.70
2023-05-13T22:11:04.543Z,85.50
2023-05-13T22:13:31.481Z,85.20
2023-05-13T22:15:58.349Z,85.40
2023-05-13T22:18:25.570Z,85.20
2023-05-13T22:20:52.782Z,85.40
2023-05-13T22:23:19.634Z,85.10
2023-05-13T22:25:46.503Z,85.00
2023-05-13T22:28:13.552Z,84.90
2023-05-13T22:30:40.532Z,84.70
2023-05-13T22:33:07.348Z,84.80
2023-05-13T22:35:36.476Z,84.80
2023-05-13T22:38:06.489Z,84.70
2023-05-13T22:40:33.330Z,84.80
2023-05-13T22:43:00.804Z,84.70
2023-05-13T22:45:27.751Z,84.60
2023-05-13T22:47:55.960Z,84.70
2023-05-13T22:50:23.149Z,84.80
2023-05-13T22:52:50.312Z,85.30
2023-05-13T22:55:17.203Z,85.50
2023-05-13T22:57:47.023Z,85.20
2023-05-13T23:00:14.292Z,85.30
2023-05-13T23:02:41.092Z,85.70
2023-05-13T23:05:08.144Z,85.70
2023-05-13T23:07:34.965Z,85.90
2023-05-13T23:10:01.957Z,85.80
2023-05-13T23:12:28.894Z,85.70
2023-05-13T23:14:55.868Z,85.60
2023-05-13T23:17:22.739Z,85.50
2023-05-13T23:19:49.668Z,85.60
2023-05-13T23:22:16.578Z,85.60
2023-05-13T23:24:43.409Z,85.50
2023-05-13T23:27:10.167Z,85.30
2023-05-13T23:29:36.947Z,85.60
2023-05-13T23:32:06.419Z,85.50
2023-05-13T23:34:33.868Z,85.50
2023-05-13T23:37:00.519Z,85.50
2023-05-13T23:39:27.247Z,85.30
2023-05-13T23:41:53.881Z,85.30
2023-05-13T23:44:20.590Z,85.40
2023-05-13T23:46:47.263Z,85.50
2023-05-13T23:49:14.160Z,85.30
2023-05-13T23:51:40.880Z,85.40
2023-05-13T23:54:08.278Z,85.40
2023-05-13T23:56:35.043Z,85.80
2023-05-13T23:59:01.894Z,85.70
